Аэропорт: Челябинск. Челябинск

ICAO: USCC

METAR:
2021-10-23 01:00:00
USCC 230100Z 23008MPS 9999 BKN026 10/07 Q1003 R27/000060 NOSIG RMK QFE732
METAR:
2021-10-22 23:00:00
TAF USCC 222300Z 2300/2324 22005G10MPS 9999 BKN030CB TEMPO 2303/2324 24008G15MPS -SHRA OVC016CB